createdAt,value
2022-11-07T00:00:37.697Z,81.82
2022-11-07T00:03:04.651Z,81.57
2022-11-07T00:05:31.401Z,81.63
2022-11-07T00:07:57.927Z,81.12
2022-11-07T00:10:24.505Z,81.08
2022-11-07T00:12:51.050Z,81.39
2022-11-07T00:15:17.570Z,81.95
2022-11-07T00:17:44.221Z,80.92
2022-11-07T00:20:11.174Z,81.72
2022-11-07T00:22:37.698Z,81.01
2022-11-07T00:25:04.593Z,81.58
2022-11-07T00:27:31.238Z,81.33
2022-11-07T00:29:57.817Z,80.57
2022-11-07T00:32:24.398Z,80.83
2022-11-07T00:34:50.954Z,80.18
2022-11-07T00:37:17.469Z,80.98
2022-11-07T00:39:44.191Z,80.88
2022-11-07T00:42:10.697Z,80.18
2022-11-07T00:44:37.273Z,80.43
2022-11-07T00:47:03.926Z,80.08
2022-11-07T00:49:30.511Z,80.40
2022-11-07T00:51:57.066Z,80.12
2022-11-07T00:54:23.790Z,80.75
2022-11-07T00:56:50.314Z,80.24
2022-11-07T00:59:16.890Z,80.27
2022-11-07T01:01:43.648Z,79.87
2022-11-07T01:04:32.971Z,79.43
2022-11-07T01:06:59.795Z,79.55
2022-11-07T01:09:26.380Z,80.19
2022-11-07T01:11:53.203Z,79.49
2022-11-07T01:14:21.874Z,79.93
2022-11-07T01:16:49.134Z,79.35
2022-11-07T01:19:16.477Z,79.73
2022-11-07T01:21:43.636Z,79.71
2022-11-07T01:24:12.433Z,79.18
2022-11-07T01:26:40.404Z,79.56
2022-11-07T01:29:07.228Z,79.46
2022-11-07T01:31:34.073Z,79.00
2022-11-07T01:34:01.245Z,78.77
2022-11-07T01:36:28.257Z,79.55
2022-11-07T01:38:54.948Z,79.60
2022-11-07T01:41:25.655Z,78.96
2022-11-07T01:44:24.269Z,78.80
2022-11-07T01:46:55.011Z,79.49
2022-11-07T01:49:28.266Z,78.93
2022-11-07T01:51:57.655Z,79.06
2022-11-07T01:54:28.173Z,79.37
2022-11-07T01:56:58.496Z,79.12
2022-11-07T01:59:29.987Z,79.00
2022-11-07T02:01:56.771Z,79.44
2022-11-07T02:04:27.580Z,79.40
2022-11-07T02:07:13.212Z,79.11
2022-11-07T02:09:40.922Z,79.04
2022-11-07T02:12:07.802Z,78.83
2022-11-07T02:14:34.328Z,78.96
2022-11-07T02:17:01.517Z,78.92
2022-11-07T02:19:40.619Z,78.47
2022-11-07T02:22:19.125Z,78.29
2022-11-07T02:24:50.777Z,78.28
2022-11-07T02:27:21.016Z,78.33
2022-11-07T02:29:52.109Z,78.91
2022-11-07T02:32:18.678Z,78.39
2022-11-07T02:34:45.272Z,79.11
2022-11-07T02:37:22.472Z,78.93
2022-11-07T02:39:49.916Z,78.85
2022-11-07T02:42:17.190Z,78.77
2022-11-07T02:44:43.797Z,78.49
2022-11-07T02:47:10.669Z,77.77
2022-11-07T02:49:37.167Z,77.92
2022-11-07T02:52:03.979Z,77.57
2022-11-07T02:54:30.486Z,77.82
2022-11-07T02:56:57.009Z,77.72
2022-11-07T02:59:26.974Z,78.19
2022-11-07T03:01:54.162Z,77.85
2022-11-07T03:04:20.825Z,78.01
2022-11-07T03:06:47.362Z,78.07
2022-11-07T03:09:14.049Z,77.77
2022-11-07T03:11:40.576Z,77.84
2022-11-07T03:14:07.087Z,78.15
2022-11-07T03:16:33.659Z,77.43
2022-11-07T03:19:00.216Z,77.62
2022-11-07T03:21:26.759Z,77.52
2022-11-07T03:23:53.340Z,77.12
2022-11-07T03:26:20.986Z,77.00
2022-11-07T03:28:47.485Z,76.89
2022-11-07T03:31:14.001Z,76.83
2022-11-07T03:33:40.525Z,76.39
2022-11-07T03:36:07.352Z,76.64
2022-11-07T03:38:33.880Z,76.48
2022-11-07T03:41:00.405Z,76.82
2022-11-07T03:43:26.933Z,76.88
2022-11-07T03:45:53.426Z,77.06
2022-11-07T03:48:19.961Z,77.71
2022-11-07T03:50:46.527Z,77.62
2022-11-07T03:53:13.401Z,77.79
2022-11-07T03:55:42.297Z,77.69
2022-11-07T03:58:08.930Z,77.76
2022-11-07T04:00:35.515Z,78.17
2022-11-07T04:03:04.427Z,77.81
2022-11-07T04:05:31.112Z,78.33
2022-11-07T04:07:57.935Z,78.25
2022-11-07T04:10:24.408Z,78.14
2022-11-07T04:13:09.325Z,78.10
2022-11-07T04:15:57.187Z,78.22
2022-11-07T04:18:23.844Z,77.45
2022-11-07T04:20:50.347Z,77.96
2022-11-07T04:23:17.203Z,77.79
2022-11-07T04:26:02.566Z,77.43
2022-11-07T04:28:29.096Z,77.44
2022-11-07T04:30:55.805Z,77.19
2022-11-07T04:33:22.393Z,77.47
2022-11-07T04:35:48.890Z,77.50
2022-11-07T04:38:15.571Z,77.56
2022-11-07T04:40:42.064Z,77.13
2022-11-07T04:43:09.639Z,77.04
2022-11-07T04:45:39.361Z,77.40
2022-11-07T04:48:06.277Z,77.14
2022-11-07T04:50:32.821Z,76.96
2022-11-07T04:52:59.349Z,77.11
2022-11-07T04:55:27.832Z,76.54
2022-11-07T04:57:54.326Z,76.69
2022-11-07T05:00:21.318Z,76.91
2022-11-07T05:02:48.436Z,76.39
2022-11-07T05:05:15.881Z,76.86
2022-11-07T05:07:43.071Z,76.11
2022-11-07T05:10:17.632Z,76.44
2022-11-07T05:12:44.166Z,76.10
2022-11-07T05:15:10.939Z,76.01
2022-11-07T05:17:37.501Z,75.94
2022-11-07T05:20:04.381Z,75.99
2022-11-07T05:22:55.134Z,76.29
2022-11-07T05:25:22.730Z,75.86
2022-11-07T05:27:49.230Z,76.13
2022-11-07T05:30:15.801Z,75.43
2022-11-07T05:32:42.356Z,76.04
2022-11-07T05:35:09.324Z,76.28
2022-11-07T05:37:35.971Z,76.27
2022-11-07T05:40:02.520Z,76.77
2022-11-07T05:42:29.033Z,77.01
2022-11-07T05:44:55.600Z,76.52
2022-11-07T05:47:22.102Z,76.44
2022-11-07T05:49:48.616Z,76.63
2022-11-07T05:52:15.241Z,77.16
2022-11-07T05:54:41.773Z,77.17
2022-11-07T05:57:08.316Z,76.56
2022-11-07T05:59:34.925Z,76.94
2022-11-07T06:13:17.761Z,76.22
2022-11-07T06:16:14.632Z,76.23
2022-11-07T06:18:41.907Z,77.07
2022-11-07T06:21:08.619Z,77.02
2022-11-07T06:23:35.144Z,76.58
2022-11-07T06:26:02.210Z,76.96
2022-11-07T06:28:28.724Z,76.68
2022-11-07T06:31:00.072Z,76.68
2022-11-07T06:33:26.823Z,77.06
2022-11-07T06:35:53.343Z,77.15
2022-11-07T06:38:20.115Z,76.11
2022-11-07T06:40:46.679Z,76.30
2022-11-07T06:43:16.455Z,75.59
2022-11-07T06:45:45.047Z,76.05
2022-11-07T06:48:12.298Z,76.07
2022-11-07T06:50:39.124Z,76.19
2022-11-07T06:53:12.025Z,76.15
2022-11-07T06:55:39.299Z,76.93
2022-11-07T06:58:06.199Z,77.14
2022-11-07T07:00:34.508Z,76.83
2022-11-07T07:03:01.358Z,77.27
2022-11-07T07:05:28.100Z,77.16
2022-11-07T07:07:55.699Z,77.76
2022-11-07T07:10:22.525Z,76.99
2022-11-07T07:12:49.080Z,77.36
2022-11-07T07:15:15.593Z,77.01
2022-11-07T07:17:42.118Z,77.23
2022-11-07T07:20:09.603Z,77.93
2022-11-07T07:22:36.259Z,77.75
2022-11-07T07:25:02.779Z,77.87
2022-11-07T07:27:29.273Z,77.57
2022-11-07T07:29:55.812Z,77.59
2022-11-07T07:32:25.132Z,77.04
2022-11-07T07:34:52.244Z,76.54
2022-11-07T07:37:19.354Z,76.77
2022-11-07T07:39:45.930Z,77.00
2022-11-07T07:42:12.452Z,76.36
2022-11-07T07:44:39.032Z,76.83
2022-11-07T07:47:10.900Z,76.89
2022-11-07T07:49:38.055Z,76.49
2022-11-07T07:52:05.031Z,76.87
2022-11-07T07:54:31.671Z,76.47
2022-11-07T07:56:58.239Z,76.82
2022-11-07T07:59:24.858Z,76.67
2022-11-07T08:01:56.477Z,76.51
2022-11-07T08:04:23.639Z,76.55
2022-11-07T08:06:50.195Z,76.61
2022-11-07T08:09:16.685Z,76.89
2022-11-07T08:11:43.208Z,77.28
2022-11-07T08:14:11.568Z,76.81
2022-11-07T08:16:38.137Z,76.91
2022-11-07T08:19:04.777Z,76.53
2022-11-07T08:21:31.364Z,76.68
2022-11-07T08:23:57.949Z,76.27
2022-11-07T08:26:24.511Z,76.23
2022-11-07T08:28:53.921Z,76.12
2022-11-07T08:31:20.649Z,76.12
2022-11-07T08:33:47.261Z,75.63
2022-11-07T08:36:13.902Z,74.92
2022-11-07T08:38:40.436Z,75.72
2022-11-07T08:41:07.066Z,75.26
2022-11-07T08:43:33.696Z,75.38
2022-11-07T08:46:00.376Z,75.60
2022-11-07T08:48:26.913Z,74.84
2022-11-07T08:50:55.723Z,74.16
2022-11-07T08:53:23.698Z,73.96
2022-11-07T08:55:50.452Z,73.65
2022-11-07T08:58:17.546Z,73.92
2022-11-07T09:00:44.221Z,73.96
2022-11-07T09:05:58.678Z,73.66
2022-11-07T09:08:25.515Z,73.22
2022-11-07T09:10:52.068Z,73.82
2022-11-07T09:13:20.763Z,73.04
2022-11-07T09:15:51.061Z,73.39
2022-11-07T09:18:19.424Z,73.06
2022-11-07T09:20:46.004Z,71.54
2022-11-07T09:23:12.543Z,71.13
2022-11-07T09:25:39.093Z,71.44
2022-11-07T09:28:05.879Z,71.53
2022-11-07T09:30:32.931Z,71.15
2022-11-07T09:33:00.052Z,71.27
2022-11-07T09:35:27.241Z,71.20
2022-11-07T09:37:54.057Z,70.91
2022-11-07T09:40:40.738Z,71.17
2022-11-07T09:43:07.338Z,70.40
2022-11-07T09:45:51.658Z,70.31
2022-11-07T09:48:24.446Z,70.85
2022-11-07T09:50:51.739Z,70.62
2022-11-07T09:53:27.172Z,70.42
2022-11-07T09:55:57.788Z,70.16
2022-11-07T09:58:31.432Z,70.11
2022-11-07T10:01:02.922Z,69.61
2022-11-07T10:03:30.188Z,69.74
2022-11-07T10:06:34.258Z,69.32
2022-11-07T10:09:11.312Z,69.89
2022-11-07T10:11:53.439Z,70.09
2022-11-07T10:14:49.192Z,69.03
2022-11-07T10:17:42.570Z,69.47
2022-11-07T10:20:35.307Z,69.01
2022-11-07T10:23:17.860Z,68.76
2022-11-07T10:25:52.971Z,68.74
2022-11-07T10:28:20.774Z,68.85
2022-11-07T10:30:52.887Z,67.97
2022-11-07T10:33:51.927Z,68.78
2022-11-07T10:36:32.543Z,68.34
2022-11-07T10:39:01.711Z,68.92
2022-11-07T10:41:31.235Z,68.62
2022-11-07T10:44:04.971Z,69.26
2022-11-07T10:46:41.915Z,69.17
2022-11-07T10:49:23.306Z,69.39
2022-11-07T10:51:50.763Z,69.42
2022-11-07T10:54:35.858Z,69.61
2022-11-07T10:57:15.554Z,69.45
2022-11-07T10:59:59.223Z,68.60
2022-11-07T11:02:30.198Z,69.11
2022-11-07T11:04:59.525Z,69.31
2022-11-07T11:07:37.072Z,69.27
2022-11-07T11:10:17.217Z,68.85
2022-11-07T11:12:47.016Z,68.79
2022-11-07T11:15:15.016Z,68.61
2022-11-07T11:17:42.072Z,68.68
2022-11-07T11:20:26.634Z,68.36
2022-11-07T11:22:53.922Z,67.87
2022-11-07T11:25:21.980Z,67.87
2022-11-07T11:28:10.072Z,67.30
2022-11-07T11:30:37.128Z,67.90
2022-11-07T11:33:13.821Z,67.79
2022-11-07T11:35:46.953Z,67.78
2022-11-07T11:38:22.863Z,66.83
2022-11-07T11:41:03.371Z,66.42
2022-11-07T11:43:59.031Z,65.81
2022-11-07T11:46:38.570Z,66.10
2022-11-07T11:49:32.405Z,66.35
2022-11-07T11:52:24.086Z,66.03
2022-11-07T11:54:52.780Z,65.75
2022-11-07T11:57:38.120Z,65.87
2022-11-07T12:00:23.044Z,66.00
2022-11-07T12:03:00.465Z,66.30
2022-11-07T12:05:40.877Z,66.30
2022-11-07T12:08:32.440Z,66.00
2022-11-07T12:10:59.939Z,66.39
2022-11-07T12:13:42.578Z,66.27
2022-11-07T12:16:09.550Z,66.74
2022-11-07T12:18:54.896Z,66.40
2022-11-07T12:21:48.634Z,66.53
2022-11-07T12:24:37.255Z,66.71
2022-11-07T12:27:28.137Z,66.59
2022-11-07T12:30:05.747Z,65.92
2022-11-07T12:32:38.120Z,65.83
2022-11-07T12:35:26.444Z,65.09
2022-11-07T12:37:59.019Z,64.99
2022-11-07T12:40:43.907Z,65.37
2022-11-07T12:43:18.741Z,65.05
2022-11-07T12:46:00.971Z,65.04
2022-11-07T12:48:39.698Z,64.79
2022-11-07T12:51:15.468Z,64.64
2022-11-07T12:54:16.225Z,65.41
2022-11-07T12:56:45.291Z,65.06
2022-11-07T12:59:21.026Z,64.51
2022-11-07T13:02:06.534Z,65.88
2022-11-07T13:04:38.905Z,64.72
2022-11-07T13:07:44.035Z,66.11
2022-11-07T13:10:10.480Z,65.48
2022-11-07T13:13:01.680Z,65.52
2022-11-07T13:15:31.870Z,65.53
2022-11-07T13:18:24.999Z,65.46
2022-11-07T13:21:02.861Z,65.67
2022-11-07T13:23:30.251Z,65.15
2022-11-07T13:26:25.946Z,65.75
2022-11-07T13:28:57.845Z,65.52
2022-11-07T13:31:40.443Z,66.07
2022-11-07T13:34:26.715Z,65.86
2022-11-07T13:37:01.111Z,65.47
2022-11-07T13:39:30.410Z,66.39
2022-11-07T13:41:59.530Z,65.91
2022-11-07T13:44:34.828Z,65.64
2022-11-07T13:47:05.283Z,65.70
2022-11-07T13:49:44.763Z,65.78
2022-11-07T13:52:19.507Z,65.08
2022-11-07T13:55:05.796Z,65.63
2022-11-07T13:57:40.340Z,65.39
2022-11-07T14:00:10.980Z,65.71
2022-11-07T14:02:37.725Z,65.49
2022-11-07T14:05:17.687Z,65.19
2022-11-07T14:08:16.872Z,64.68
2022-11-07T14:10:48.838Z,65.12
2022-11-07T14:13:41.336Z,65.16
2022-11-07T14:16:17.610Z,64.90
2022-11-07T14:18:56.759Z,65.31
2022-11-07T14:21:27.279Z,65.06
2022-11-07T14:23:54.041Z,65.69
2022-11-07T14:26:30.672Z,65.67
2022-11-07T14:28:57.969Z,65.99
2022-11-07T14:31:34.272Z,66.56
2022-11-07T14:34:03.742Z,66.61
2022-11-07T14:36:31.313Z,66.04
2022-11-07T14:39:05.185Z,66.59
2022-11-07T14:41:32.093Z,66.38
2022-11-07T14:44:03.891Z,66.39
2022-11-07T14:46:30.914Z,66.46
2022-11-07T14:48:57.824Z,66.29
2022-11-07T14:51:27.832Z,66.39
2022-11-07T14:54:04.372Z,66.91
2022-11-07T14:56:37.706Z,66.81
2022-11-07T14:59:04.806Z,66.47
2022-11-07T15:01:34.227Z,66.89
2022-11-07T15:04:05.536Z,66.87
2022-11-07T15:06:34.714Z,67.37
2022-11-07T15:09:05.539Z,67.34
2022-11-07T15:11:35.172Z,67.93
2022-11-07T15:14:04.121Z,68.06
2022-11-07T15:16:38.067Z,67.93
2022-11-07T15:19:08.856Z,67.66
2022-11-07T15:21:38.608Z,67.84
2022-11-07T15:24:47.403Z,67.93
2022-11-07T15:27:13.878Z,68.50
2022-11-07T15:29:53.644Z,68.37
2022-11-07T15:32:22.896Z,68.58
2022-11-07T15:37:38.629Z,68.70
2022-11-07T15:40:31.492Z,68.79
2022-11-07T15:42:58.298Z,69.24
2022-11-07T15:45:25.103Z,69.78
2022-11-07T15:47:51.934Z,69.95
2022-11-07T15:50:24.851Z,70.29
2022-11-07T15:52:52.889Z,71.04
2022-11-07T15:55:21.787Z,71.00
2022-11-07T15:57:51.646Z,71.71
2022-11-07T16:00:20.843Z,71.55
2022-11-07T16:02:47.973Z,72.42
2022-11-07T16:05:15.258Z,72.55
2022-11-07T16:07:43.420Z,72.63
2022-11-07T16:10:26.798Z,73.08
2022-11-07T16:12:54.089Z,72.71
2022-11-07T16:15:23.654Z,72.83
2022-11-07T16:17:50.513Z,73.03
2022-11-07T16:20:20.430Z,73.10
2022-11-07T16:22:48.200Z,72.66
2022-11-07T16:25:21.381Z,73.45
2022-11-07T16:27:59.127Z,72.99
2022-11-07T16:30:27.306Z,73.08
2022-11-07T16:32:53.819Z,73.14
2022-11-07T16:35:20.368Z,73.25
2022-11-07T16:37:47.081Z,73.35
2022-11-07T16:40:17.879Z,73.25
2022-11-07T16:42:45.036Z,73.43
2022-11-07T16:45:17.113Z,73.37
2022-11-07T16:47:44.143Z,73.48
2022-11-07T16:50:16.838Z,73.80
2022-11-07T16:52:43.516Z,74.29
2022-11-07T16:55:19.796Z,73.92
2022-11-07T16:57:46.984Z,74.52
2022-11-07T17:00:18.832Z,74.51
2022-11-07T17:02:45.493Z,74.82
2022-11-07T17:05:12.794Z,74.75
2022-11-07T17:07:39.313Z,74.72
2022-11-07T17:10:06.517Z,75.21
2022-11-07T17:12:33.447Z,75.42
2022-11-07T17:15:00.044Z,75.56
2022-11-07T17:17:26.539Z,75.62
2022-11-07T17:19:53.055Z,75.84
2022-11-07T17:22:20.010Z,75.66
2022-11-07T17:24:47.275Z,75.73
2022-11-07T17:27:22.772Z,76.33
2022-11-07T17:29:50.278Z,76.06
2022-11-07T17:32:17.162Z,76.36
2022-11-07T17:34:44.130Z,76.37
2022-11-07T17:37:16.490Z,76.24
2022-11-07T17:39:45.992Z,76.01
2022-11-07T17:42:12.957Z,76.08
2022-11-07T17:44:40.080Z,76.21
2022-11-07T17:47:07.026Z,76.12
2022-11-07T17:49:33.655Z,76.17
2022-11-07T17:52:00.189Z,76.43
2022-11-07T17:54:29.449Z,76.36
2022-11-07T17:56:56.397Z,76.51
2022-11-07T17:59:23.398Z,76.80
2022-11-07T18:01:50.073Z,76.81
2022-11-07T18:04:16.734Z,76.82
2022-11-07T18:06:43.457Z,77.31
2022-11-07T18:09:14.314Z,76.99
2022-11-07T18:11:40.882Z,77.35
2022-11-07T18:14:07.813Z,77.67
2022-11-07T18:16:36.110Z,77.32
2022-11-07T18:19:04.331Z,77.73
2022-11-07T18:21:31.264Z,77.46
2022-11-07T18:23:58.172Z,77.85
2022-11-07T18:26:30.907Z,77.59
2022-11-07T18:29:02.108Z,77.35
2022-11-07T18:31:28.644Z,77.51
2022-11-07T18:34:00.420Z,77.21
2022-11-07T18:36:28.219Z,77.01
2022-11-07T18:38:54.741Z,76.59
2022-11-07T18:41:22.983Z,76.93
2022-11-07T18:43:50.176Z,76.42
2022-11-07T18:46:19.323Z,75.96
2022-11-07T18:48:46.673Z,76.16
2022-11-07T18:51:19.213Z,76.46
2022-11-07T18:53:46.028Z,76.40
2022-11-07T18:56:13.732Z,76.22
2022-11-07T18:58:42.465Z,76.49
2022-11-07T19:01:21.830Z,76.91
2022-11-07T19:03:48.732Z,76.93
2022-11-07T19:06:18.150Z,77.63
2022-11-07T19:08:47.756Z,77.63
2022-11-07T19:11:17.757Z,77.51
2022-11-07T19:13:47.906Z,78.20
2022-11-07T19:16:16.932Z,77.96
2022-11-07T19:18:49.085Z,78.89
2022-11-07T19:21:20.491Z,78.43
2022-11-07T19:23:48.396Z,78.71
2022-11-07T19:26:15.963Z,78.96
2022-11-07T19:28:42.511Z,79.43
2022-11-07T19:31:12.974Z,79.05
2022-11-07T19:33:41.431Z,79.55
2022-11-07T19:36:13.177Z,79.40
2022-11-07T19:38:39.741Z,79.40
2022-11-07T19:41:07.682Z,79.19
2022-11-07T19:43:34.825Z,79.64
2022-11-07T19:46:07.093Z,79.20
2022-11-07T19:48:33.749Z,79.59
2022-11-07T19:51:03.713Z,79.74
2022-11-07T19:53:30.233Z,79.91
2022-11-07T19:55:56.801Z,80.06
2022-11-07T19:58:23.476Z,80.05
2022-11-07T20:00:50.004Z,79.60
2022-11-07T20:03:16.983Z,79.55
2022-11-07T20:05:43.936Z,79.94
2022-11-07T20:08:10.491Z,80.59
2022-11-07T20:10:37.014Z,80.65
2022-11-07T20:13:03.520Z,80.74
2022-11-07T20:15:30.030Z,80.10
2022-11-07T20:17:56.569Z,80.87
2022-11-07T20:20:23.086Z,81.22
2022-11-07T20:22:49.673Z,81.29
2022-11-07T20:25:16.426Z,81.60
2022-11-07T20:27:42.962Z,81.53
2022-11-07T20:30:10.333Z,81.78
2022-11-07T20:32:37.048Z,81.90
2022-11-07T20:35:04.108Z,81.58
2022-11-07T20:37:31.005Z,81.67
2022-11-07T20:39:57.638Z,81.48
2022-11-07T20:42:24.177Z,81.91
2022-11-07T20:44:51.207Z,82.42
2022-11-07T20:47:18.020Z,82.15
2022-11-07T20:49:44.663Z,82.48
2022-11-07T20:52:11.334Z,82.64
2022-11-07T20:54:39.409Z,82.59
2022-11-07T20:57:06.076Z,83.02
2022-11-07T20:59:33.076Z,83.43
2022-11-07T21:02:03.387Z,83.45
2022-11-07T21:04:49.578Z,83.70
2022-11-07T21:07:19.709Z,83.01
2022-11-07T21:09:46.929Z,83.84
2022-11-07T21:12:14.359Z,83.75
2022-11-07T21:14:42.386Z,83.53
2022-11-07T21:17:09.731Z,84.30
2022-11-07T21:19:36.432Z,83.63
2022-11-07T21:22:04.166Z,83.73
2022-11-07T21:24:31.488Z,84.24
2022-11-07T21:26:58.086Z,85.09
2022-11-07T21:29:29.280Z,85.13
2022-11-07T21:31:56.802Z,85.20
2022-11-07T21:34:23.393Z,84.82
2022-11-07T21:36:49.888Z,84.73
2022-11-07T21:39:17.470Z,85.62
2022-11-07T21:41:44.099Z,84.80
2022-11-07T21:44:12.343Z,85.63
2022-11-07T21:46:38.924Z,85.43
2022-11-07T21:49:06.275Z,86.04
2022-11-07T21:51:34.698Z,86.02
2022-11-07T21:54:02.921Z,85.83
2022-11-07T21:56:40.049Z,85.63
2022-11-07T21:59:10.919Z,86.47
2022-11-07T22:01:39.742Z,86.80
2022-11-07T22:04:10.886Z,86.53
2022-11-07T22:06:44.209Z,86.75
2022-11-07T22:09:14.447Z,86.24
2022-11-07T22:11:41.205Z,86.40
2022-11-07T22:14:07.857Z,86.75
2022-11-07T22:16:34.651Z,87.63
2022-11-07T22:19:01.591Z,87.83
2022-11-07T22:21:28.459Z,87.58
2022-11-07T22:23:55.714Z,87.90
2022-11-07T22:26:25.213Z,87.37
2022-11-07T22:28:51.940Z,87.79
2022-11-07T22:31:23.054Z,87.79
2022-11-07T22:33:50.981Z,87.16
2022-11-07T22:36:18.068Z,87.65
2022-11-07T22:38:44.806Z,87.34
2022-11-07T22:41:17.208Z,86.59
2022-11-07T22:43:43.991Z,86.74
2022-11-07T22:46:16.885Z,85.90
2022-11-07T22:48:45.223Z,86.30
2022-11-07T22:51:14.613Z,86.41
2022-11-07T22:53:41.508Z,85.78
2022-11-07T22:56:18.956Z,85.65
2022-11-07T22:58:47.118Z,86.44
2022-11-07T23:01:19.857Z,86.26
2022-11-07T23:03:47.301Z,86.19
2022-11-07T23:06:14.788Z,86.05
2022-11-07T23:08:41.493Z,86.68
2022-11-07T23:11:44.888Z,86.15
2022-11-07T23:14:03.977Z,86.44
2022-11-07T23:16:36.214Z,86.66
2022-11-07T23:19:05.797Z,86.84
2022-11-07T23:21:33.121Z,87.34
2022-11-07T23:24:00.358Z,87.31
2022-11-07T23:26:33.848Z,87.71
2022-11-07T23:29:22.938Z,87.97
2022-11-07T23:31:50.979Z,87.90
2022-11-07T23:34:19.390Z,87.99
2022-11-07T23:36:46.329Z,87.92
2022-11-07T23:39:18.598Z,87.98
2022-11-07T23:41:46.004Z,88.13
2022-11-07T23:44:13.527Z,88.08
2022-11-07T23:46:59.816Z,87.74
2022-11-07T23:49:44.699Z,88.52
2022-11-07T23:52:11.938Z,88.29
2022-11-07T23:54:57.097Z,88.05
2022-11-07T23:57:23.611Z,87.93
